sensor_id;sensor_type;location;lat;lon;timestamp;temperature;humidity
26703;DHT22;14316;51.074;3.704;2023-03-13T00:02:16;10.50;99.90
26703;DHT22;14316;51.074;3.704;2023-03-13T00:04:42;10.50;99.90
26703;DHT22;14316;51.074;3.704;2023-03-13T00:07:08;10.50;99.90
26703;DHT22;14316;51.074;3.704;2023-03-13T00:09:35;10.60;99.90
26703;DHT22;14316;51.074;3.704;2023-03-13T00:12:01;10.50;99.90
26703;DHT22;14316;51.074;3.704;2023-03-13T00:14:27;10.60;99.90
26703;DHT22;14316;51.074;3.704;2023-03-13T00:16:53;10.60;99.90
26703;DHT22;14316;51.074;3.704;2023-03-13T00:19:19;10.60;99.90
26703;DHT22;14316;51.074;3.704;2023-03-13T00:21:44;10.60;99.90
26703;DHT22;14316;51.074;3.704;2023-03-13T00:24:11;10.60;99.90
26703;DHT22;14316;51.074;3.704;2023-03-13T00:26:37;10.70;99.90
26703;DHT22;14316;51.074;3.704;2023-03-13T00:29:03;10.70;99.90
26703;DHT22;14316;51.074;3.704;2023-03-13T00:31:30;10.70;99.90
26703;DHT22;14316;51.074;3.704;2023-03-13T00:34:01;10.70;99.90
26703;DHT22;14316;51.074;3.704;2023-03-13T00:36:32;10.80;99.90
26703;DHT22;14316;51.074;3.704;2023-03-13T00:38:59;10.80;99.90
26703;DHT22;14316;51.074;3.704;2023-03-13T00:41:27;10.80;99.90
26703;DHT22;14316;51.074;3.704;2023-03-13T00:43:54;10.90;99.90
26703;DHT22;14316;51.074;3.704;2023-03-13T00:46:22;10.90;99.90
26703;DHT22;14316;51.074;3.704;2023-03-13T00:48:49;10.90;99.90
26703;DHT22;14316;51.074;3.704;2023-03-13T00:51:16;11.00;99.90
26703;DHT22;14316;51.074;3.704;2023-03-13T00:53:43;11.00;99.90
26703;DHT22;14316;51.074;3.704;2023-03-13T00:56:12;11.00;99.90
26703;DHT22;14316;51.074;3.704;2023-03-13T00:58:40;11.00;99.90
26703;DHT22;14316;51.074;3.704;2023-03-13T01:03:34;11.10;99.90
26703;DHT22;14316;51.074;3.704;2023-03-13T01:06:02;11.10;99.90
26703;DHT22;14316;51.074;3.704;2023-03-13T01:08:29;11.20;99.90
26703;DHT22;14316;51.074;3.704;2023-03-13T01:11:05;11.20;99.90
26703;DHT22;14316;51.074;3.704;2023-03-13T01:13:31;11.20;99.90
26703;DHT22;14316;51.074;3.704;2023-03-13T01:16:02;11.20;99.90
26703;DHT22;14316;51.074;3.704;2023-03-13T01:18:29;11.30;99.90
26703;DHT22;14316;51.074;3.704;2023-03-13T01:20:55;11.30;99.90
26703;DHT22;14316;51.074;3.704;2023-03-13T01:23:21;11.30;99.90
26703;DHT22;14316;51.074;3.704;2023-03-13T01:25:48;11.30;99.90
26703;DHT22;14316;51.074;3.704;2023-03-13T01:28:14;11.40;99.90
26703;DHT22;14316;51.074;3.704;2023-03-13T01:30:40;11.50;99.90
26703;DHT22;14316;51.074;3.704;2023-03-13T01:33:06;11.40;99.90
26703;DHT22;14316;51.074;3.704;2023-03-13T01:35:33;11.50;99.90
26703;DHT22;14316;51.074;3.704;2023-03-13T01:37:59;11.50;99.90
26703;DHT22;14316;51.074;3.704;2023-03-13T01:40:25;11.50;99.90
26703;DHT22;14316;51.074;3.704;2023-03-13T01:42:59;11.60;99.90
26703;DHT22;14316;51.074;3.704;2023-03-13T01:48:19;11.60;99.90
26703;DHT22;14316;51.074;3.704;2023-03-13T01:50:45;11.70;99.90
26703;DHT22;14316;51.074;3.704;2023-03-13T01:53:11;11.70;99.90
26703;DHT22;14316;51.074;3.704;2023-03-13T01:55:38;11.70;99.90
26703;DHT22;14316;51.074;3.704;2023-03-13T01:58:04;11.80;99.90
26703;DHT22;14316;51.074;3.704;2023-03-13T02:00:33;11.80;99.90
26703;DHT22;14316;51.074;3.704;2023-03-13T02:03:05;12.00;99.90
26703;DHT22;14316;51.074;3.704;2023-03-13T02:05:31;12.00;99.90
26703;DHT22;14316;51.074;3.704;2023-03-13T02:08:02;12.10;99.90
26703;DHT22;14316;51.074;3.704;2023-03-13T02:10:31;12.10;99.90
26703;DHT22;14316;51.074;3.704;2023-03-13T02:13:00;12.10;99.90
26703;DHT22;14316;51.074;3.704;2023-03-13T02:15:27;12.10;99.90
26703;DHT22;14316;51.074;3.704;2023-03-13T02:17:54;12.10;99.90
26703;DHT22;14316;51.074;3.704;2023-03-13T02:20:21;12.10;99.90
26703;DHT22;14316;51.074;3.704;2023-03-13T02:23:13;12.10;99.90
26703;DHT22;14316;51.074;3.704;2023-03-13T02:28:33;12.10;99.90
26703;DHT22;14316;51.074;3.704;2023-03-13T02:31:00;12.10;99.90
26703;DHT22;14316;51.074;3.704;2023-03-13T02:33:29;12.10;99.90
26703;DHT22;14316;51.074;3.704;2023-03-13T02:35:57;12.10;99.90
26703;DHT22;14316;51.074;3.704;2023-03-13T02:38:26;12.10;99.90
26703;DHT22;14316;51.074;3.704;2023-03-13T02:40:53;12.10;99.90
26703;DHT22;14316;51.074;3.704;2023-03-13T02:43:22;12.10;99.90
26703;DHT22;14316;51.074;3.704;2023-03-13T02:46:18;12.10;99.90
26703;DHT22;14316;51.074;3.704;2023-03-13T02:48:47;12.20;99.90
26703;DHT22;14316;51.074;3.704;2023-03-13T02:51:29;12.20;99.90
26703;DHT22;14316;51.074;3.704;2023-03-13T02:53:57;12.30;99.90
26703;DHT22;14316;51.074;3.704;2023-03-13T02:56:26;12.20;99.90
26703;DHT22;14316;51.074;3.704;2023-03-13T02:58:52;12.30;99.90
26703;DHT22;14316;51.074;3.704;2023-03-13T03:01:19;12.30;99.90
26703;DHT22;14316;51.074;3.704;2023-03-13T03:03:45;12.30;99.90
26703;DHT22;14316;51.074;3.704;2023-03-13T03:06:11;12.40;99.90
26703;DHT22;14316;51.074;3.704;2023-03-13T03:08:37;12.40;99.90
26703;DHT22;14316;51.074;3.704;2023-03-13T03:11:06;12.40;99.90
26703;DHT22;14316;51.074;3.704;2023-03-13T03:13:33;12.50;99.90
26703;DHT22;14316;51.074;3.704;2023-03-13T03:16:04;12.50;99.90
26703;DHT22;14316;51.074;3.704;2023-03-13T03:20:55;12.60;99.90
26703;DHT22;14316;51.074;3.704;2023-03-13T03:23:21;12.60;99.90
26703;DHT22;14316;51.074;3.704;2023-03-13T03:25:48;12.70;99.90
26703;DHT22;14316;51.074;3.704;2023-03-13T03:28:13;12.70;99.90
26703;DHT22;14316;51.074;3.704;2023-03-13T03:30:39;12.60;99.90
26703;DHT22;14316;51.074;3.704;2023-03-13T03:33:05;12.60;99.90
26703;DHT22;14316;51.074;3.704;2023-03-13T03:35:31;12.70;99.90
26703;DHT22;14316;51.074;3.704;2023-03-13T03:37:59;12.70;99.90
26703;DHT22;14316;51.074;3.704;2023-03-13T03:40:25;12.70;99.90
26703;DHT22;14316;51.074;3.704;2023-03-13T03:42:51;12.60;99.90
26703;DHT22;14316;51.074;3.704;2023-03-13T03:45:17;12.60;99.90
26703;DHT22;14316;51.074;3.704;2023-03-13T03:47:43;12.70;99.90
26703;DHT22;14316;51.074;3.704;2023-03-13T03:50:10;12.70;99.90
26703;DHT22;14316;51.074;3.704;2023-03-13T03:52:37;12.70;99.90
26703;DHT22;14316;51.074;3.704;2023-03-13T03:55:03;12.70;99.90
26703;DHT22;14316;51.074;3.704;2023-03-13T03:57:29;12.70;99.90
26703;DHT22;14316;51.074;3.704;2023-03-13T03:59:56;12.80;99.90
26703;DHT22;14316;51.074;3.704;2023-03-13T04:02:23;12.70;99.90
26703;DHT22;14316;51.074;3.704;2023-03-13T04:04:49;12.80;99.90
26703;DHT22;14316;51.074;3.704;2023-03-13T04:07:15;12.80;99.90
26703;DHT22;14316;51.074;3.704;2023-03-13T04:09:40;12.80;99.90
26703;DHT22;14316;51.074;3.704;2023-03-13T04:12:07;12.80;99.90
26703;DHT22;14316;51.074;3.704;2023-03-13T04:14:34;12.80;99.90
26703;DHT22;14316;51.074;3.704;2023-03-13T04:17:00;12.80;99.90
26703;DHT22;14316;51.074;3.704;2023-03-13T04:19:25;12.80;99.90
26703;DHT22;14316;51.074;3.704;2023-03-13T04:21:51;12.70;99.90
26703;DHT22;14316;51.074;3.704;2023-03-13T04:24:17;12.80;99.90
26703;DHT22;14316;51.074;3.704;2023-03-13T04:26:44;12.80;99.90
26703;DHT22;14316;51.074;3.704;2023-03-13T04:29:10;12.80;99.90
26703;DHT22;14316;51.074;3.704;2023-03-13T04:31:36;12.80;99.90
26703;DHT22;14316;51.074;3.704;2023-03-13T04:34:02;12.80;99.90
26703;DHT22;14316;51.074;3.704;2023-03-13T04:36:28;12.90;99.90
26703;DHT22;14316;51.074;3.704;2023-03-13T04:38:54;12.80;99.90
26703;DHT22;14316;51.074;3.704;2023-03-13T04:41:20;12.90;99.90
26703;DHT22;14316;51.074;3.704;2023-03-13T04:43:46;12.90;99.90
26703;DHT22;14316;51.074;3.704;2023-03-13T04:46:12;12.90;99.90
26703;DHT22;14316;51.074;3.704;2023-03-13T04:48:38;12.80;99.90
26703;DHT22;14316;51.074;3.704;2023-03-13T04:51:04;12.80;99.90
26703;DHT22;14316;51.074;3.704;2023-03-13T04:53:30;12.80;99.90
26703;DHT22;14316;51.074;3.704;2023-03-13T04:55:56;12.80;99.90
26703;DHT22;14316;51.074;3.704;2023-03-13T04:58:22;12.80;99.90
26703;DHT22;14316;51.074;3.704;2023-03-13T05:00:48;12.80;99.90
26703;DHT22;14316;51.074;3.704;2023-03-13T05:03:15;12.80;99.90
26703;DHT22;14316;51.074;3.704;2023-03-13T05:05:41;12.80;99.90
26703;DHT22;14316;51.074;3.704;2023-03-13T05:08:07;12.80;99.90
26703;DHT22;14316;51.074;3.704;2023-03-13T05:10:35;12.80;99.90
26703;DHT22;14316;51.074;3.704;2023-03-13T05:13:01;12.80;99.90
26703;DHT22;14316;51.074;3.704;2023-03-13T05:15:27;12.80;99.90
26703;DHT22;14316;51.074;3.704;2023-03-13T05:17:53;12.80;99.90
26703;DHT22;14316;51.074;3.704;2023-03-13T05:20:19;12.80;99.90
26703;DHT22;14316;51.074;3.704;2023-03-13T05:22:45;12.80;99.90
26703;DHT22;14316;51.074;3.704;2023-03-13T05:25:11;12.80;99.90
26703;DHT22;14316;51.074;3.704;2023-03-13T05:27:37;12.80;99.90
26703;DHT22;14316;51.074;3.704;2023-03-13T05:30:03;12.80;99.90
26703;DHT22;14316;51.074;3.704;2023-03-13T05:32:29;12.80;99.90
26703;DHT22;14316;51.074;3.704;2023-03-13T05:34:55;12.90;99.90
26703;DHT22;14316;51.074;3.704;2023-03-13T05:37:21;12.90;99.90
26703;DHT22;14316;51.074;3.704;2023-03-13T05:39:48;12.90;99.90
26703;DHT22;14316;51.074;3.704;2023-03-13T05:42:13;12.90;99.90
26703;DHT22;14316;51.074;3.704;2023-03-13T05:44:39;12.90;99.90
26703;DHT22;14316;51.074;3.704;2023-03-13T05:47:05;12.90;99.90
26703;DHT22;14316;51.074;3.704;2023-03-13T05:49:31;12.90;99.90
26703;DHT22;14316;51.074;3.704;2023-03-13T05:51:58;13.00;99.90
26703;DHT22;14316;51.074;3.704;2023-03-13T05:54:24;12.90;99.90
26703;DHT22;14316;51.074;3.704;2023-03-13T05:56:50;13.00;99.90
26703;DHT22;14316;51.074;3.704;2023-03-13T05:59:16;13.00;99.90
26703;DHT22;14316;51.074;3.704;2023-03-13T06:01:42;13.00;99.90
26703;DHT22;14316;51.074;3.704;2023-03-13T06:04:09;12.90;99.90
26703;DHT22;14316;51.074;3.704;2023-03-13T06:06:34;12.90;99.90
26703;DHT22;14316;51.074;3.704;2023-03-13T06:09:00;12.90;99.90
26703;DHT22;14316;51.074;3.704;2023-03-13T06:11:26;12.90;99.90
26703;DHT22;14316;51.074;3.704;2023-03-13T06:13:52;12.90;99.90
26703;DHT22;14316;51.074;3.704;2023-03-13T06:16:19;12.90;99.90
26703;DHT22;14316;51.074;3.704;2023-03-13T06:21:11;12.50;99.90
26703;DHT22;14316;51.074;3.704;2023-03-13T06:23:37;12.50;99.90
26703;DHT22;14316;51.074;3.704;2023-03-13T06:26:04;12.50;99.90
26703;DHT22;14316;51.074;3.704;2023-03-13T06:28:30;12.50;99.90
26703;DHT22;14316;51.074;3.704;2023-03-13T06:31:01;12.50;99.90
26703;DHT22;14316;51.074;3.704;2023-03-13T06:33:27;12.50;99.90
26703;DHT22;14316;51.074;3.704;2023-03-13T06:35:53;12.50;99.90
26703;DHT22;14316;51.074;3.704;2023-03-13T06:38:19;12.40;99.90
26703;DHT22;14316;51.074;3.704;2023-03-13T06:40:46;12.40;99.90
26703;DHT22;14316;51.074;3.704;2023-03-13T06:43:11;12.30;99.90
26703;DHT22;14316;51.074;3.704;2023-03-13T06:45:37;12.30;99.90
26703;DHT22;14316;51.074;3.704;2023-03-13T06:48:04;12.30;99.90
26703;DHT22;14316;51.074;3.704;2023-03-13T06:50:30;12.40;99.90
26703;DHT22;14316;51.074;3.704;2023-03-13T06:52:56;12.50;99.90
26703;DHT22;14316;51.074;3.704;2023-03-13T06:55:23;12.60;99.90
26703;DHT22;14316;51.074;3.704;2023-03-13T06:57:50;12.60;99.90
26703;DHT22;14316;51.074;3.704;2023-03-13T07:00:17;12.60;99.90
26703;DHT22;14316;51.074;3.704;2023-03-13T07:02:43;12.60;99.90
26703;DHT22;14316;51.074;3.704;2023-03-13T07:05:09;12.60;99.90
26703;DHT22;14316;51.074;3.704;2023-03-13T07:07:35;12.60;99.90
26703;DHT22;14316;51.074;3.704;2023-03-13T07:10:01;12.60;99.90
26703;DHT22;14316;51.074;3.704;2023-03-13T07:12:27;12.50;99.90
26703;DHT22;14316;51.074;3.704;2023-03-13T07:14:53;12.50;99.90
26703;DHT22;14316;51.074;3.704;2023-03-13T07:17:20;12.40;99.90
26703;DHT22;14316;51.074;3.704;2023-03-13T07:19:46;12.30;99.90
26703;DHT22;14316;51.074;3.704;2023-03-13T07:22:12;12.30;99.90
26703;DHT22;14316;51.074;3.704;2023-03-13T07:24:38;12.30;99.90
26703;DHT22;14316;51.074;3.704;2023-03-13T07:27:04;12.20;99.90
26703;DHT22;14316;51.074;3.704;2023-03-13T07:29:30;12.10;99.90
26703;DHT22;14316;51.074;3.704;2023-03-13T07:31:56;12.00;99.90
26703;DHT22;14316;51.074;3.704;2023-03-13T07:34:22;12.00;99.90
26703;DHT22;14316;51.074;3.704;2023-03-13T07:36:48;11.90;99.90
26703;DHT22;14316;51.074;3.704;2023-03-13T07:39:14;11.90;99.90
26703;DHT22;14316;51.074;3.704;2023-03-13T07:41:40;12.00;99.90
26703;DHT22;14316;51.074;3.704;2023-03-13T07:44:07;12.00;99.90
26703;DHT22;14316;51.074;3.704;2023-03-13T07:46:33;12.00;99.90
26703;DHT22;14316;51.074;3.704;2023-03-13T07:48:59;12.00;99.90
26703;DHT22;14316;51.074;3.704;2023-03-13T07:51:25;12.10;99.90
26703;DHT22;14316;51.074;3.704;2023-03-13T07:53:52;12.20;99.90
26703;DHT22;14316;51.074;3.704;2023-03-13T07:56:21;12.30;99.90
26703;DHT22;14316;51.074;3.704;2023-03-13T07:58:47;12.40;99.90
26703;DHT22;14316;51.074;3.704;2023-03-13T08:01:18;12.50;99.90
26703;DHT22;14316;51.074;3.704;2023-03-13T08:03:44;12.60;99.90
26703;DHT22;14316;51.074;3.704;2023-03-13T08:06:18;12.80;99.90
26703;DHT22;14316;51.074;3.704;2023-03-13T08:08:45;12.90;99.90
26703;DHT22;14316;51.074;3.704;2023-03-13T08:11:13;13.10;99.90
26703;DHT22;14316;51.074;3.704;2023-03-13T08:13:40;13.20;99.90
26703;DHT22;14316;51.074;3.704;2023-03-13T08:16:13;13.20;99.90
26703;DHT22;14316;51.074;3.704;2023-03-13T08:18:43;13.20;99.90
26703;DHT22;14316;51.074;3.704;2023-03-13T08:21:11;13.30;99.90
26703;DHT22;14316;51.074;3.704;2023-03-13T08:23:38;13.30;99.90
26703;DHT22;14316;51.074;3.704;2023-03-13T08:28:36;13.30;99.90
26703;DHT22;14316;51.074;3.704;2023-03-13T08:31:24;13.30;99.90
26703;DHT22;14316;51.074;3.704;2023-03-13T08:33:50;13.40;99.90
26703;DHT22;14316;51.074;3.704;2023-03-13T08:36:42;13.50;99.90
26703;DHT22;14316;51.074;3.704;2023-03-13T08:39:15;13.50;99.90
26703;DHT22;14316;51.074;3.704;2023-03-13T08:41:41;13.50;99.90
26703;DHT22;14316;51.074;3.704;2023-03-13T08:44:10;13.70;99.90
26703;DHT22;14316;51.074;3.704;2023-03-13T08:46:37;13.80;99.90
26703;DHT22;14316;51.074;3.704;2023-03-13T08:49:04;13.80;99.90
26703;DHT22;14316;51.074;3.704;2023-03-13T08:51:31;13.90;99.90
26703;DHT22;14316;51.074;3.704;2023-03-13T08:53:57;13.90;99.90
26703;DHT22;14316;51.074;3.704;2023-03-13T08:56:25;13.80;99.90
26703;DHT22;14316;51.074;3.704;2023-03-13T08:59:00;14.00;99.90
26703;DHT22;14316;51.074;3.704;2023-03-13T09:01:29;14.10;99.90
26703;DHT22;14316;51.074;3.704;2023-03-13T09:03:56;14.30;99.90
26703;DHT22;14316;51.074;3.704;2023-03-13T09:06:22;14.50;99.90
26703;DHT22;14316;51.074;3.704;2023-03-13T09:08:48;14.40;99.90
26703;DHT22;14316;51.074;3.704;2023-03-13T09:11:16;14.50;99.90
26703;DHT22;14316;51.074;3.704;2023-03-13T09:13:45;14.50;99.90
26703;DHT22;14316;51.074;3.704;2023-03-13T09:16:17;14.50;99.90
26703;DHT22;14316;51.074;3.704;2023-03-13T09:18:44;14.50;99.90
26703;DHT22;14316;51.074;3.704;2023-03-13T09:21:15;14.40;99.90
26703;DHT22;14316;51.074;3.704;2023-03-13T09:23:42;14.40;99.90
26703;DHT22;14316;51.074;3.704;2023-03-13T09:26:08;14.60;99.90
26703;DHT22;14316;51.074;3.704;2023-03-13T09:28:34;14.70;99.90
26703;DHT22;14316;51.074;3.704;2023-03-13T09:31:36;14.90;99.90
26703;DHT22;14316;51.074;3.704;2023-03-13T09:34:02;14.90;99.90
26703;DHT22;14316;51.074;3.704;2023-03-13T09:36:29;14.90;99.90
26703;DHT22;14316;51.074;3.704;2023-03-13T09:38:57;14.80;99.90
26703;DHT22;14316;51.074;3.704;2023-03-13T09:46:40;15.00;99.90
26703;DHT22;14316;51.074;3.704;2023-03-13T09:49:30;15.10;99.90
26703;DHT22;14316;51.074;3.704;2023-03-13T10:00:13;15.30;99.90
26703;DHT22;14316;51.074;3.704;2023-03-13T10:02:45;15.20;99.90
26703;DHT22;14316;51.074;3.704;2023-03-13T10:05:24;15.00;99.90
26703;DHT22;14316;51.074;3.704;2023-03-13T10:08:37;14.90;99.90
26703;DHT22;14316;51.074;3.704;2023-03-13T10:16:08;14.80;99.90
26703;DHT22;14316;51.074;3.704;2023-03-13T10:18:35;14.80;99.90
26703;DHT22;14316;51.074;3.704;2023-03-13T10:21:23;15.00;99.90
26703;DHT22;14316;51.074;3.704;2023-03-13T10:24:02;15.10;99.90
26703;DHT22;14316;51.074;3.704;2023-03-13T10:26:33;15.20;99.90
26703;DHT22;14316;51.074;3.704;2023-03-13T10:29:22;15.40;99.90
26703;DHT22;14316;51.074;3.704;2023-03-13T10:32:02;15.40;99.90
26703;DHT22;14316;51.074;3.704;2023-03-13T10:34:56;15.50;99.90
26703;DHT22;14316;51.074;3.704;2023-03-13T10:37:31;15.60;99.90
26703;DHT22;14316;51.074;3.704;2023-03-13T10:40:23;15.60;99.90
26703;DHT22;14316;51.074;3.704;2023-03-13T10:42:52;15.70;99.90
26703;DHT22;14316;51.074;3.704;2023-03-13T10:45:19;15.70;99.90
26703;DHT22;14316;51.074;3.704;2023-03-13T10:50:25;16.10;99.90
26703;DHT22;14316;51.074;3.704;2023-03-13T10:52:51;16.10;99.90
26703;DHT22;14316;51.074;3.704;2023-03-13T10:55:21;16.20;99.90
26703;DHT22;14316;51.074;3.704;2023-03-13T10:58:02;16.30;99.90
26703;DHT22;14316;51.074;3.704;2023-03-13T11:00:35;16.20;99.90
26703;DHT22;14316;51.074;3.704;2023-03-13T11:05:42;16.70;99.90
26703;DHT22;14316;51.074;3.704;2023-03-13T11:08:18;17.00;99.90
26703;DHT22;14316;51.074;3.704;2023-03-13T11:11:01;17.00;99.90
26703;DHT22;14316;51.074;3.704;2023-03-13T11:13:39;16.80;99.90
26703;DHT22;14316;51.074;3.704;2023-03-13T11:32:39;16.00;99.90
26703;DHT22;14316;51.074;3.704;2023-03-13T11:35:32;16.20;99.90
26703;DHT22;14316;51.074;3.704;2023-03-13T11:38:05;16.50;99.90
26703;DHT22;14316;51.074;3.704;2023-03-13T11:40:47;16.50;99.90
26703;DHT22;14316;51.074;3.704;2023-03-13T11:43:31;16.80;99.90
26703;DHT22;14316;51.074;3.704;2023-03-13T11:46:24;17.20;99.90
26703;DHT22;14316;51.074;3.704;2023-03-13T11:56:42;17.20;99.90
26703;DHT22;14316;51.074;3.704;2023-03-13T11:59:24;17.10;99.90
26703;DHT22;14316;51.074;3.704;2023-03-13T12:02:20;17.00;99.90
26703;DHT22;14316;51.074;3.704;2023-03-13T12:04:53;16.90;99.90
26703;DHT22;14316;51.074;3.704;2023-03-13T12:10:11;17.70;99.90
26703;DHT22;14316;51.074;3.704;2023-03-13T12:15:25;17.10;99.90
26703;DHT22;14316;51.074;3.704;2023-03-13T12:18:04;17.00;99.90
26703;DHT22;14316;51.074;3.704;2023-03-13T12:21:11;17.20;99.90
26703;DHT22;14316;51.074;3.704;2023-03-13T12:23:41;17.30;99.90
26703;DHT22;14316;51.074;3.704;2023-03-13T12:26:17;16.90;99.90
26703;DHT22;14316;51.074;3.704;2023-03-13T12:29:05;17.00;99.90
26703;DHT22;14316;51.074;3.704;2023-03-13T12:31:39;17.50;99.90
26703;DHT22;14316;51.074;3.704;2023-03-13T12:34:19;18.10;99.90
26703;DHT22;14316;51.074;3.704;2023-03-13T12:37:09;18.40;99.90
26703;DHT22;14316;51.074;3.704;2023-03-13T12:39:44;18.00;99.90
26703;DHT22;14316;51.074;3.704;2023-03-13T12:42:54;17.70;99.90
26703;DHT22;14316;51.074;3.704;2023-03-13T12:45:23;18.70;99.90
26703;DHT22;14316;51.074;3.704;2023-03-13T12:47:58;18.70;99.90
26703;DHT22;14316;51.074;3.704;2023-03-13T12:50:38;18.70;99.90
26703;DHT22;14316;51.074;3.704;2023-03-13T12:53:12;18.90;99.90
26703;DHT22;14316;51.074;3.704;2023-03-13T13:01:06;18.10;99.90
26703;DHT22;14316;51.074;3.704;2023-03-13T13:03:49;18.10;99.90
26703;DHT22;14316;51.074;3.704;2023-03-13T13:06:15;17.90;99.90
26703;DHT22;14316;51.074;3.704;2023-03-13T13:16:56;18.50;99.90
26703;DHT22;14316;51.074;3.704;2023-03-13T13:24:54;17.50;99.90
26703;DHT22;14316;51.074;3.704;2023-03-13T13:35:41;19.00;99.90
26703;DHT22;14316;51.074;3.704;2023-03-13T13:43:41;19.80;99.90
26703;DHT22;14316;51.074;3.704;2023-03-13T13:48:38;20.80;99.90
26703;DHT22;14316;51.074;3.704;2023-03-13T13:54:01;21.10;99.90
26703;DHT22;14316;51.074;3.704;2023-03-13T14:01:23;19.90;99.90
26703;DHT22;14316;51.074;3.704;2023-03-13T14:03:50;19.90;99.90
26703;DHT22;14316;51.074;3.704;2023-03-13T14:06:26;19.70;99.90
26703;DHT22;14316;51.074;3.704;2023-03-13T14:09:00;20.10;99.90
26703;DHT22;14316;51.074;3.704;2023-03-13T14:11:36;19.40;99.90
26703;DHT22;14316;51.074;3.704;2023-03-13T14:14:17;19.70;99.90
26703;DHT22;14316;51.074;3.704;2023-03-13T14:16:48;20.20;99.90
26703;DHT22;14316;51.074;3.704;2023-03-13T14:19:40;20.70;99.90
26703;DHT22;14316;51.074;3.704;2023-03-13T14:22:10;20.20;99.90
26703;DHT22;14316;51.074;3.704;2023-03-13T14:24:38;20.40;99.90
26703;DHT22;14316;51.074;3.704;2023-03-13T14:27:15;19.90;99.90
26703;DHT22;14316;51.074;3.704;2023-03-13T14:29:44;20.60;99.90
26703;DHT22;14316;51.074;3.704;2023-03-13T14:32:24;20.50;99.90
26703;DHT22;14316;51.074;3.704;2023-03-13T14:34:50;20.30;99.90
26703;DHT22;14316;51.074;3.704;2023-03-13T14:37:37;20.50;99.90
26703;DHT22;14316;51.074;3.704;2023-03-13T14:40:07;21.40;99.90
26703;DHT22;14316;51.074;3.704;2023-03-13T14:42:57;20.80;99.90
26703;DHT22;14316;51.074;3.704;2023-03-13T14:45:33;20.80;99.90
26703;DHT22;14316;51.074;3.704;2023-03-13T14:48:18;20.10;99.90
26703;DHT22;14316;51.074;3.704;2023-03-13T14:50:46;19.90;99.90
26703;DHT22;14316;51.074;3.704;2023-03-13T14:53:21;20.50;99.90
26703;DHT22;14316;51.074;3.704;2023-03-13T14:56:07;20.70;99.90
26703;DHT22;14316;51.074;3.704;2023-03-13T14:58:33;20.80;99.90
26703;DHT22;14316;51.074;3.704;2023-03-13T15:01:20;21.60;99.90
26703;DHT22;14316;51.074;3.704;2023-03-13T15:03:48;21.30;99.90
26703;DHT22;14316;51.074;3.704;2023-03-13T15:06:16;20.70;99.90
26703;DHT22;14316;51.074;3.704;2023-03-13T15:08:45;20.60;99.90
26703;DHT22;14316;51.074;3.704;2023-03-13T15:13:44;20.40;99.90
26703;DHT22;14316;51.074;3.704;2023-03-13T15:16:16;20.90;99.90
26703;DHT22;14316;51.074;3.704;2023-03-13T15:18:45;20.80;99.90
26703;DHT22;14316;51.074;3.704;2023-03-13T15:23:37;20.80;99.90
26703;DHT22;14316;51.074;3.704;2023-03-13T15:26:04;21.40;99.90
26703;DHT22;14316;51.074;3.704;2023-03-13T15:28:31;21.10;99.90
26703;DHT22;14316;51.074;3.704;2023-03-13T15:30:58;20.50;99.90
26703;DHT22;14316;51.074;3.704;2023-03-13T15:33:27;20.30;99.90
26703;DHT22;14316;51.074;3.704;2023-03-13T15:35:53;20.40;99.90
26703;DHT22;14316;51.074;3.704;2023-03-13T15:38:21;20.30;99.90
26703;DHT22;14316;51.074;3.704;2023-03-13T15:40:48;20.00;99.90
26703;DHT22;14316;51.074;3.704;2023-03-13T15:43:15;20.40;99.90
26703;DHT22;14316;51.074;3.704;2023-03-13T15:45:43;20.60;99.90
26703;DHT22;14316;51.074;3.704;2023-03-13T15:48:18;20.30;99.90
26703;DHT22;14316;51.074;3.704;2023-03-13T15:50:48;20.00;99.90
26703;DHT22;14316;51.074;3.704;2023-03-13T15:53:17;20.80;99.90
26703;DHT22;14316;51.074;3.704;2023-03-13T15:55:47;20.80;99.90
26703;DHT22;14316;51.074;3.704;2023-03-13T15:58:13;20.50;99.90
26703;DHT22;14316;51.074;3.704;2023-03-13T16:00:40;20.80;99.90
26703;DHT22;14316;51.074;3.704;2023-03-13T16:03:16;20.80;99.90
26703;DHT22;14316;51.074;3.704;2023-03-13T16:05:45;20.50;99.90
26703;DHT22;14316;51.074;3.704;2023-03-13T16:08:16;20.60;99.90
26703;DHT22;14316;51.074;3.704;2023-03-13T16:10:43;20.80;99.90
26703;DHT22;14316;51.074;3.704;2023-03-13T16:13:09;20.50;99.90
26703;DHT22;14316;51.074;3.704;2023-03-13T16:15:36;20.20;99.90
26703;DHT22;14316;51.074;3.704;2023-03-13T16:18:03;20.00;99.90
26703;DHT22;14316;51.074;3.704;2023-03-13T16:20:32;20.10;99.90
26703;DHT22;14316;51.074;3.704;2023-03-13T16:22:59;20.10;99.90
26703;DHT22;14316;51.074;3.704;2023-03-13T16:25:29;19.70;99.90
26703;DHT22;14316;51.074;3.704;2023-03-13T16:27:56;19.70;99.90
26703;DHT22;14316;51.074;3.704;2023-03-13T16:30:26;19.50;99.90
26703;DHT22;14316;51.074;3.704;2023-03-13T16:32:52;19.50;99.90
26703;DHT22;14316;51.074;3.704;2023-03-13T16:35:18;19.40;99.90
26703;DHT22;14316;51.074;3.704;2023-03-13T16:37:45;18.80;99.90
26703;DHT22;14316;51.074;3.704;2023-03-13T16:40:25;18.60;99.90
26703;DHT22;14316;51.074;3.704;2023-03-13T16:42:52;18.10;99.90
26703;DHT22;14316;51.074;3.704;2023-03-13T16:45:18;17.60;99.90
26703;DHT22;14316;51.074;3.704;2023-03-13T16:47:45;17.40;99.90
26703;DHT22;14316;51.074;3.704;2023-03-13T16:50:35;17.20;99.90
26703;DHT22;14316;51.074;3.704;2023-03-13T16:53:02;17.00;99.90
26703;DHT22;14316;51.074;3.704;2023-03-13T16:55:29;16.90;99.90
26703;DHT22;14316;51.074;3.704;2023-03-13T16:58:01;16.20;99.90
26703;DHT22;14316;51.074;3.704;2023-03-13T17:00:28;16.30;99.90
26703;DHT22;14316;51.074;3.704;2023-03-13T17:05:22;16.00;99.90
26703;DHT22;14316;51.074;3.704;2023-03-13T17:07:49;15.90;99.90
26703;DHT22;14316;51.074;3.704;2023-03-13T17:10:31;15.90;99.90
26703;DHT22;14316;51.074;3.704;2023-03-13T17:15:24;15.70;99.90
26703;DHT22;14316;51.074;3.704;2023-03-13T17:17:51;15.60;99.90
26703;DHT22;14316;51.074;3.704;2023-03-13T17:20:27;15.60;99.90
26703;DHT22;14316;51.074;3.704;2023-03-13T17:22:54;15.50;99.90
26703;DHT22;14316;51.074;3.704;2023-03-13T17:25:21;15.20;99.90
26703;DHT22;14316;51.074;3.704;2023-03-13T17:32:59;15.00;99.90
26703;DHT22;14316;51.074;3.704;2023-03-13T17:35:25;14.80;99.90
26703;DHT22;14316;51.074;3.704;2023-03-13T17:37:51;14.70;99.90
26703;DHT22;14316;51.074;3.704;2023-03-13T17:40:26;14.70;99.90
26703;DHT22;14316;51.074;3.704;2023-03-13T17:42:52;14.50;99.90
26703;DHT22;14316;51.074;3.704;2023-03-13T17:45:20;14.40;99.90
26703;DHT22;14316;51.074;3.704;2023-03-13T17:47:46;14.10;99.90
26703;DHT22;14316;51.074;3.704;2023-03-13T17:50:24;14.10;99.90
26703;DHT22;14316;51.074;3.704;2023-03-13T17:52:54;14.10;99.90
26703;DHT22;14316;51.074;3.704;2023-03-13T17:55:20;14.00;99.90